createdAt,value
2023-04-15T00:03:45.461Z,9.10
2023-04-15T00:08:48.217Z,10.96
2023-04-15T00:13:50.016Z,8.96
2023-04-15T00:18:51.851Z,9.34
2023-04-15T00:23:53.842Z,9.38
2023-04-15T00:28:55.498Z,9.44
2023-04-15T00:33:57.166Z,9.34
2023-04-15T00:38:59.079Z,8.33
2023-04-15T00:44:02.491Z,9.77
2023-04-15T00:49:06.397Z,8.43
2023-04-15T00:54:08.019Z,7.79
2023-04-15T00:59:10.084Z,8.00
2023-04-15T01:04:12.352Z,8.79
2023-04-15T01:09:13.978Z,9.56
2023-04-15T01:14:16.171Z,8.64
2023-04-15T01:19:18.146Z,10.20
2023-04-15T01:24:20.118Z,11.58
2023-04-15T01:29:22.556Z,8.59
2023-04-15T01:34:24.183Z,10.13
2023-04-15T01:39:26.075Z,10.95
2023-04-15T01:44:27.772Z,8.93
2023-04-15T01:49:29.472Z,8.02
2023-04-15T01:54:31.556Z,6.28
2023-04-15T01:59:33.154Z,7.87
2023-04-15T02:04:34.943Z,8.78
2023-04-15T02:09:36.533Z,9.07
2023-04-15T02:14:38.081Z,8.92
2023-04-15T02:19:40.596Z,8.38
2023-04-15T02:24:42.194Z,7.25
2023-04-15T02:29:46.874Z,9.56
2023-04-15T02:34:48.749Z,9.26
2023-04-15T02:39:50.659Z,6.54
2023-04-15T02:44:52.234Z,9.41
2023-04-15T02:49:53.851Z,8.90
2023-04-15T02:55:00.512Z,8.04
2023-04-15T03:00:02.308Z,7.89
2023-04-15T03:05:04.594Z,7.94
2023-04-15T03:10:07.399Z,8.64
2023-04-15T03:15:09.972Z,7.70
2023-04-15T03:20:11.813Z,9.57
2023-04-15T03:25:13.583Z,7.83
2023-04-15T03:30:15.290Z,9.30
2023-04-15T03:35:17.230Z,6.38
2023-04-15T03:40:19.061Z,7.41
2023-04-15T03:45:20.726Z,9.26
2023-04-15T03:50:22.415Z,9.31
2023-04-15T03:55:24.012Z,8.14
2023-04-15T04:00:25.652Z,7.44
2023-04-15T04:05:27.277Z,6.34
2023-04-15T04:10:28.825Z,9.03
2023-04-15T04:15:30.552Z,6.47
2023-04-15T04:20:32.273Z,7.98
2023-04-15T04:25:33.832Z,7.85
2023-04-15T04:30:36.232Z,7.45
2023-04-15T04:35:37.967Z,7.84
2023-04-15T04:40:39.749Z,6.57
2023-04-15T04:45:41.981Z,6.84
2023-04-15T04:50:45.168Z,6.69
2023-04-15T04:55:46.841Z,4.91
2023-04-15T05:00:48.507Z,5.82
2023-04-15T05:05:50.352Z,6.94
2023-04-15T05:10:52.088Z,6.76
2023-04-15T05:15:53.805Z,6.81
2023-04-15T05:20:55.545Z,6.03
2023-04-15T05:25:57.272Z,7.29
2023-04-15T05:30:59.049Z,8.24
2023-04-15T05:36:00.804Z,9.55
2023-04-15T05:41:02.531Z,9.31
2023-04-15T05:46:04.458Z,9.56
2023-04-15T05:51:06.553Z,9.54
2023-04-15T05:56:08.352Z,9.75
2023-04-15T06:01:09.998Z,7.44
2023-04-15T06:06:11.656Z,9.14
2023-04-15T06:11:13.419Z,8.73
2023-04-15T06:16:15.138Z,9.29
2023-04-15T06:21:16.786Z,8.74
2023-04-15T06:26:18.428Z,7.50
2023-04-15T06:31:20.169Z,6.36
2023-04-15T06:36:22.122Z,7.93
2023-04-15T06:41:23.997Z,7.11
2023-04-15T06:46:26.092Z,7.36
2023-04-15T06:51:27.817Z,7.75
2023-04-15T06:56:29.686Z,8.36
2023-04-15T07:01:31.509Z,8.51
2023-04-15T07:06:33.887Z,10.37
2023-04-15T07:11:36.524Z,9.77
2023-04-15T07:16:38.165Z,9.22
2023-04-15T07:21:41.812Z,10.22
2023-04-15T07:26:44.651Z,9.66
2023-04-15T07:31:46.397Z,10.37
2023-04-15T07:36:52.074Z,9.20
2023-04-15T07:41:53.727Z,9.47
2023-04-15T07:46:56.165Z,9.15
2023-04-15T07:51:57.895Z,8.75
2023-04-15T07:56:59.560Z,9.63
2023-04-15T08:02:01.399Z,11.55
2023-04-15T08:07:04.103Z,9.22
2023-04-15T08:12:06.497Z,10.64
2023-04-15T08:17:08.205Z,10.27
2023-04-15T08:22:17.657Z,11.31
2023-04-15T08:27:20.235Z,10.77
2023-04-15T08:32:22.756Z,11.91
2023-04-15T08:37:24.492Z,11.04
2023-04-15T08:42:35.315Z,11.37
2023-04-15T08:47:38.858Z,11.50
2023-04-15T08:52:40.608Z,11.89
2023-04-15T08:57:42.248Z,11.30
2023-04-15T09:02:44.250Z,11.45
2023-04-15T09:07:46.235Z,13.26
2023-04-15T09:12:47.819Z,12.81
2023-04-15T09:17:49.561Z,13.26
2023-04-15T09:22:52.309Z,11.95
2023-04-15T09:27:59.232Z,11.04
2023-04-15T09:33:04.919Z,13.40
2023-04-15T09:38:08.017Z,12.98
2023-04-15T09:43:13.178Z,12.77
2023-04-15T09:48:29.127Z,13.59
2023-04-15T09:53:34.490Z,11.68
2023-04-15T09:58:38.711Z,14.47
2023-04-15T10:03:42.537Z,14.01
2023-04-15T10:08:44.374Z,14.19
2023-04-15T10:13:47.243Z,13.79
2023-04-15T10:18:55.728Z,14.77
2023-04-15T10:23:58.674Z,14.39
2023-04-15T10:29:01.392Z,15.03
2023-04-15T10:34:06.505Z,15.12
2023-04-15T10:39:34.369Z,13.35
2023-04-15T10:44:38.392Z,14.28
2023-04-15T10:49:45.720Z,13.81
2023-04-15T10:54:47.690Z,13.86
2023-04-15T10:59:58.812Z,14.89
2023-04-15T11:07:05.788Z,13.67
2023-04-15T11:12:09.627Z,12.28
2023-04-15T11:17:11.762Z,12.77
2023-04-15T11:22:13.546Z,12.64
2023-04-15T11:27:24.311Z,11.44
2023-04-15T11:32:26.055Z,12.86
2023-04-15T11:37:32.378Z,14.20
2023-04-15T11:42:48.766Z,13.75
2023-04-15T11:47:51.135Z,13.91
2023-04-15T11:53:06.229Z,14.16
2023-04-15T11:58:17.071Z,13.73
2023-04-15T12:03:27.789Z,13.92
2023-04-15T12:08:49.154Z,14.14
2023-04-15T12:13:51.408Z,13.78
2023-04-15T12:18:58.965Z,14.00
2023-04-15T12:24:04.510Z,14.47
2023-04-15T12:29:08.374Z,15.07
2023-04-15T12:34:10.025Z,13.58
2023-04-15T12:39:11.772Z,12.91
2023-04-15T12:44:13.497Z,13.45
2023-04-15T12:49:16.073Z,13.27
2023-04-15T12:54:18.796Z,13.09
2023-04-15T12:59:21.184Z,13.43
2023-04-15T13:04:23.274Z,15.53
2023-04-15T13:09:25.240Z,15.67
2023-04-15T13:14:27.310Z,15.26
2023-04-15T13:19:28.950Z,13.99
2023-04-15T13:24:30.795Z,13.83
2023-04-15T13:29:32.816Z,15.06
2023-04-15T13:34:34.531Z,14.71
2023-04-15T13:39:36.445Z,13.74
2023-04-15T13:44:38.586Z,15.13
2023-04-15T13:49:40.667Z,14.12
2023-04-15T13:54:42.438Z,14.84
2023-04-15T13:59:44.363Z,14.12
2023-04-15T14:04:46.006Z,14.27
2023-04-15T14:09:48.346Z,15.25
2023-04-15T14:14:50.086Z,14.11
2023-04-15T14:19:51.789Z,13.26
2023-04-15T14:24:54.775Z,13.81
2023-04-15T14:29:57.862Z,13.33
2023-04-15T14:34:59.596Z,13.69
2023-04-15T14:40:01.234Z,14.53
2023-04-15T14:45:02.964Z,13.34
2023-04-15T14:50:05.120Z,13.59
2023-04-15T14:55:10.426Z,13.28
2023-04-15T15:00:15.841Z,14.32
2023-04-15T15:05:18.153Z,13.52
2023-04-15T15:10:38.181Z,15.22
2023-04-15T15:15:42.185Z,15.10
2023-04-15T15:20:44.073Z,15.99
2023-04-15T15:25:46.586Z,14.73
2023-04-15T15:30:48.402Z,15.13
2023-04-15T15:35:51.424Z,14.11
2023-04-15T15:40:53.084Z,14.89
2023-04-15T15:45:55.644Z,12.47
2023-04-15T15:50:57.554Z,14.12
2023-04-15T15:55:59.208Z,12.05
2023-04-15T16:01:01.928Z,13.67
2023-04-15T16:06:04.608Z,13.60
2023-04-15T16:11:06.485Z,12.47
2023-04-15T16:16:08.274Z,13.10
2023-04-15T16:21:10.166Z,10.66
2023-04-15T16:26:11.854Z,10.91
2023-04-15T16:31:13.601Z,10.69
2023-04-15T16:36:15.617Z,10.66
2023-04-15T16:41:18.629Z,11.25
2023-04-15T16:46:20.414Z,11.75
2023-04-15T16:51:22.072Z,13.11
2023-04-15T16:56:23.979Z,11.39
2023-04-15T17:01:25.784Z,11.54
2023-04-15T17:06:27.933Z,11.40
2023-04-15T17:11:29.704Z,10.47
2023-04-15T17:16:31.455Z,11.99
2023-04-15T17:21:34.789Z,10.73
2023-04-15T17:26:36.516Z,11.16
2023-04-15T17:31:38.291Z,10.37
2023-04-15T17:36:40.137Z,10.93
2023-04-15T17:41:41.883Z,11.31
2023-04-15T17:46:43.658Z,10.92
2023-04-15T17:51:46.717Z,11.59
2023-04-15T17:56:49.388Z,10.63
2023-04-15T18:01:51.205Z,12.24
2023-04-15T18:06:52.971Z,11.36
2023-04-15T18:11:54.593Z,11.90
2023-04-15T18:16:56.615Z,10.59
2023-04-15T18:22:00.242Z,12.44
2023-04-15T18:27:02.452Z,12.98
2023-04-15T18:32:04.275Z,13.49
2023-04-15T18:37:06.461Z,12.83
2023-04-15T18:42:08.190Z,13.26
2023-04-15T18:47:09.829Z,13.21
2023-04-15T18:52:11.775Z,13.80
2023-04-15T18:57:13.436Z,15.05
2023-04-15T19:02:18.446Z,15.30
2023-04-15T19:07:20.216Z,14.39
2023-04-15T19:12:21.888Z,12.44
2023-04-15T19:17:23.797Z,12.28
2023-04-15T19:22:25.539Z,10.59
2023-04-15T19:27:27.247Z,11.97
2023-04-15T19:32:28.996Z,11.55
2023-04-15T19:37:30.710Z,11.69
2023-04-15T19:42:32.510Z,11.59
2023-04-15T19:47:34.834Z,12.15
2023-04-15T19:52:36.679Z,14.61
2023-04-15T19:57:38.430Z,15.46
2023-04-15T20:02:40.390Z,12.22
2023-04-15T20:07:42.759Z,14.61
2023-04-15T20:12:49.807Z,14.46
2023-04-15T20:17:54.428Z,14.06
2023-04-15T20:22:56.155Z,14.00
2023-04-15T20:28:00.390Z,14.02
2023-04-15T20:33:02.908Z,13.52
2023-04-15T20:38:04.623Z,13.70
2023-04-15T20:43:06.244Z,12.62
2023-04-15T20:48:08.012Z,13.60
2023-04-15T20:53:09.689Z,14.21
2023-04-15T20:58:11.988Z,12.35
2023-04-15T21:03:13.928Z,13.28
2023-04-15T21:08:15.752Z,12.38
2023-04-15T21:13:17.771Z,11.15
2023-04-15T21:18:20.825Z,10.93
2023-04-15T21:23:22.487Z,11.70
2023-04-15T21:28:24.178Z,12.09
2023-04-15T21:33:26.292Z,12.15
2023-04-15T21:38:27.944Z,12.09
2023-04-15T21:43:30.092Z,12.12
2023-04-15T21:48:31.782Z,12.43
2023-04-15T21:53:33.631Z,12.78
2023-04-15T21:58:35.391Z,13.72
2023-04-15T22:03:37.163Z,11.43
2023-04-15T22:08:48.817Z,12.92
2023-04-15T22:13:54.816Z,12.18
2023-04-15T22:18:56.545Z,11.96
2023-04-15T22:24:38.044Z,11.58
2023-04-15T22:29:19.990Z,13.76
2023-04-15T22:34:22.056Z,13.02
2023-04-15T22:39:23.723Z,11.36
2023-04-15T22:44:25.343Z,12.76
2023-04-15T22:49:27.426Z,11.17
2023-04-15T22:54:29.090Z,10.24
2023-04-15T22:59:30.974Z,10.27
2023-04-15T23:04:32.701Z,11.31
2023-04-15T23:09:34.504Z,10.60
2023-04-15T23:14:36.142Z,11.55
2023-04-15T23:19:37.763Z,9.12
2023-04-15T23:24:39.353Z,9.92
2023-04-15T23:29:40.996Z,10.45
2023-04-15T23:34:42.621Z,9.36
2023-04-15T23:39:44.679Z,10.04
2023-04-15T23:44:46.354Z,10.56
2023-04-15T23:49:47.923Z,10.99
2023-04-15T23:54:49.542Z,10.44
2023-04-15T23:59:51.273Z,12.97
